Time;durP1;ratioP1;P1;durP2;ratioP2;P2;SDS_P1;SDS_P2;PMS_P1;PMS_P2;Temp;Humidity;BMP_temperature;BMP_pressure;BME280_temperature;BME280_humidity;BME280_pressure;Samples;Min_cycle;Max_cycle;Signal;HPM_P1;HPM_P2
2023/12/02 00:00:23;;;;;;;20.98;12.60;;;;;;;3.56;91.64;96694.41;4192553;28;20189;-87
2023/12/02 00:02:26;;;;;;;20.25;12.55;;;;;;;3.50;91.17;96693.06;4185608;28;20212;-87
2023/12/02 00:04:29;;;;;;;21.65;13.02;;;;;;;3.49;91.60;96683.66;4184651;28;20209;-87
2023/12/02 00:06:32;;;;;;;22.17;13.25;;;;;;;3.45;91.83;96684.78;4191638;28;21176;-87
2023/12/02 00:08:40;;;;;;;23.33;14.52;;;;;;;3.49;92.04;96682.84;4168321;28;20213;-87
2023/12/02 00:10:43;;;;;;;25.55;14.80;;;;;;;3.54;91.78;96676.47;4189789;28;20280;-87
2023/12/02 00:12:46;;;;;;;22.00;12.02;;;;;;;3.55;91.94;96677.28;4191376;28;20240;-86
2023/12/02 00:14:49;;;;;;;20.55;13.13;;;;;;;3.56;92.80;96679.75;4191286;28;20258;-86
2023/12/02 00:16:52;;;;;;;21.50;13.32;;;;;;;3.56;91.84;96679.75;4186390;28;20638;-86
2023/12/02 00:18:56;;;;;;;23.67;13.80;;;;;;;3.58;93.31;96677.09;4167309;28;20294;-85
2023/12/02 00:20:59;;;;;;;24.27;13.48;;;;;;;3.60;92.12;96675.25;4192609;28;20205;-87
2023/12/02 00:23:02;;;;;;;20.38;12.70;;;;;;;3.60;92.18;96688.13;4188195;28;20201;-87
2023/12/02 00:25:07;;;;;;;25.13;13.70;;;;;;;3.59;91.63;96687.28;4172000;28;20210;-86
2023/12/02 00:27:11;;;;;;;21.80;13.43;;;;;;;3.61;92.58;96688.03;4183242;28;20230;-86
2023/12/02 00:29:14;;;;;;;20.38;12.73;;;;;;;3.59;91.26;96695.03;4189275;28;20204;-86
2023/12/02 00:31:17;;;;;;;23.33;12.93;;;;;;;3.59;91.46;96695.03;4185666;28;20253;-86
2023/12/02 00:33:21;;;;;;;22.90;13.95;;;;;;;3.59;90.82;96694.22;4192831;28;20212;-86
2023/12/02 00:35:25;;;;;;;24.08;14.75;;;;;;;3.56;90.69;96702.94;4171735;28;20225;-86
2023/12/02 00:37:28;;;;;;;23.33;14.07;;;;;;;3.55;90.27;96706.47;4186990;28;20299;-86
2023/12/02 00:39:31;;;;;;;22.63;13.63;;;;;;;3.52;89.63;96704.09;4204685;28;20205;-86
2023/12/02 00:41:36;;;;;;;21.85;13.40;;;;;;;3.54;91.57;96707.38;4190436;28;20206;-86
2023/12/02 00:43:39;;;;;;;27.70;14.85;;;;;;;3.56;91.92;96709.88;4184625;28;20202;-86
2023/12/02 00:45:42;;;;;;;21.95;13.25;;;;;;;3.48;90.59;96705.19;4182847;28;20202;-86
2023/12/02 00:47:45;;;;;;;25.80;14.52;;;;;;;3.48;89.34;96712.09;4183484;28;20209;-86
2023/12/02 00:49:49;;;;;;;22.17;13.27;;;;;;;3.42;90.39;96713.31;4170396;28;20202;-86
2023/12/02 00:51:51;;;;;;;25.65;15.00;;;;;;;3.41;89.73;96721.13;4190242;28;20198;-86
2023/12/02 00:53:54;;;;;;;26.15;15.02;;;;;;;3.30;89.69;96721.78;4191524;28;20675;-86
2023/12/02 00:55:58;;;;;;;25.08;14.15;;;;;;;3.19;89.05;96719.97;4185889;28;20234;-87
2023/12/02 00:58:02;;;;;;;24.55;14.18;;;;;;;3.01;90.00;96709.06;4174723;28;20317;-86
2023/12/02 01:00:08;;;;;;;27.65;16.60;;;;;;;3.01;89.85;96716.78;4186606;28;20217;-86
2023/12/02 01:02:11;;;;;;;22.60;13.93;;;;;;;3.01;90.26;96715.97;4188384;28;20327;-87
2023/12/02 01:04:14;;;;;;;24.77;13.82;;;;;;;3.01;90.61;96713.41;4190009;28;20189;-86
2023/12/02 01:06:18;;;;;;;25.63;14.88;;;;;;;2.93;91.23;96713.84;4190464;28;20202;-86
2023/12/02 01:08:21;;;;;;;23.77;13.25;;;;;;;2.89;91.05;96706.41;4188655;28;20666;-87
2023/12/02 01:10:24;;;;;;;24.13;14.10;;;;;;;2.93;91.85;96708.72;4168751;28;20207;-86
2023/12/02 01:12:27;;;;;;;26.40;14.70;;;;;;;2.95;91.01;96712.00;4188747;28;20209;-85
2023/12/02 01:14:32;;;;;;;26.42;15.10;;;;;;;2.91;91.00;96714.84;4182887;28;20668;-87
2023/12/02 01:16:35;;;;;;;27.92;14.95;;;;;;;2.90;91.24;96708.91;4187648;28;20202;-86
2023/12/02 01:18:38;;;;;;;24.77;14.88;;;;;;;2.87;90.69;96713.38;4189591;28;20216;-87
2023/12/02 01:20:41;;;;;;;25.33;15.23;;;;;;;2.84;90.97;96708.41;4205743;28;20193;-86
2023/12/02 01:22:44;;;;;;;25.15;14.60;;;;;;;2.85;90.61;96717.81;4172272;28;20256;-86
2023/12/02 01:24:47;;;;;;;25.75;13.82;;;;;;;2.84;91.35;96713.56;4188702;28;20202;-86
2023/12/02 01:26:51;;;;;;;26.63;15.35;;;;;;;2.88;91.36;96710.72;4175055;28;20223;-86
2023/12/02 01:28:54;;;;;;;26.92;15.23;;;;;;;2.88;91.09;96715.03;4180632;28;20198;-87
2023/12/02 01:30:57;;;;;;;25.23;15.30;;;;;;;2.88;91.93;96713.28;4186490;28;20248;-87
2023/12/02 01:33:00;;;;;;;24.05;13.60;;;;;;;2.94;92.26;96720.63;4174061;28;20305;-87
2023/12/02 01:35:05;;;;;;;26.10;14.88;;;;;;;3.02;91.82;96727.91;4187418;28;20581;-87
2023/12/02 01:37:08;;;;;;;29.50;13.82;;;;;;;3.02;91.31;96723.59;4186672;28;20239;-87
2023/12/02 01:39:12;;;;;;;26.02;14.45;;;;;;;3.01;91.82;96726.25;4188468;28;20217;-87
2023/12/02 01:41:17;;;;;;;27.90;15.10;;;;;;;3.00;92.14;96743.44;4183984;28;20256;-86
2023/12/02 01:43:24;;;;;;;24.23;14.07;;;;;;;3.02;91.77;96733.91;4189883;28;20766;-86
2023/12/02 01:45:27;;;;;;;29.35;15.57;;;;;;;2.99;90.60;96744.38;4183940;28;20271;-87
2023/12/02 01:47:32;;;;;;;23.35;13.02;;;;;;;2.93;90.46;96738.75;4187376;28;20214;-86
2023/12/02 01:49:36;;;;;;;23.60;13.38;;;;;;;2.82;90.05;96746.28;4185591;28;20288;-86
2023/12/02 01:51:39;;;;;;;22.45;12.75;;;;;;;2.64;91.09;96752.53;4191281;28;20220;-87
2023/12/02 01:53:43;;;;;;;24.75;14.18;;;;;;;2.59;91.01;96744.25;4173909;28;20259;-86
2023/12/02 01:55:46;;;;;;;25.80;14.63;;;;;;;2.43;91.01;96743.50;4190203;28;20707;-86
2023/12/02 01:57:49;;;;;;;26.40;14.90;;;;;;;2.21;91.97;96726.00;4189802;28;20617;-86
2023/12/02 01:59:53;;;;;;;23.52;13.55;;;;;;;2.21;92.71;96741.41;4191367;28;20225;-86
2023/12/02 02:01:57;;;;;;;29.00;15.50;;;;;;;2.21;93.28;96744.00;4189700;28;20202;-87
2023/12/02 02:04:02;;;;;;;25.92;14.63;;;;;;;2.24;93.21;96746.38;4198284;28;20205;-86
2023/12/02 02:06:06;;;;;;;29.85;15.15;;;;;;;2.28;93.28;96742.75;4191468;28;20293;-86
2023/12/02 02:08:10;;;;;;;26.88;14.13;;;;;;;2.19;92.74;96740.69;4187367;28;20645;-85
2023/12/02 02:10:13;;;;;;;27.45;15.10;;;;;;;2.21;92.92;96744.84;4187923;28;20217;-87
2023/12/02 02:12:16;;;;;;;30.83;14.00;;;;;;;2.18;92.58;96742.44;4188832;28;20206;-86
2023/12/02 02:14:19;;;;;;;27.85;14.77;;;;;;;2.12;93.01;96731.66;4187385;28;20218;-87
2023/12/02 02:16:22;;;;;;;28.50;14.85;;;;;;;2.12;93.70;96727.38;4193475;28;20229;-86
2023/12/02 02:18:25;;;;;;;27.83;14.35;;;;;;;2.19;93.70;96738.94;4177872;28;20202;-86
2023/12/02 02:20:36;;;;;;;25.38;14.40;;;;;;;2.28;93.81;96748.69;4202233;28;20255;-86
2023/12/02 02:22:41;;;;;;;26.38;15.52;;;;;;;2.34;93.58;96759.44;4184128;28;20205;-87
2023/12/02 02:24:43;;;;;;;25.08;13.98;;;;;;;2.42;93.90;96764.16;4175730;28;20236;-87
2023/12/02 02:26:46;;;;;;;28.17;15.45;;;;;;;2.51;94.17;96764.47;4186239;28;20202;-85
2023/12/02 02:28:49;;;;;;;29.95;15.15;;;;;;;2.57;93.78;96758.97;4194130;28;20304;-86
2023/12/02 02:30:52;;;;;;;26.45;15.57;;;;;;;2.65;93.78;96745.66;4189204;28;20198;-86
2023/12/02 02:32:55;;;;;;;31.55;15.95;;;;;;;2.71;93.70;96747.88;4193560;28;20213;-86
2023/12/02 02:34:58;;;;;;;26.02;14.05;;;;;;;2.71;92.17;96748.69;4193407;28;20722;-87
2023/12/02 02:37:01;;;;;;;26.95;14.48;;;;;;;2.70;92.51;96746.19;4185091;28;20719;-87
2023/12/02 02:39:07;;;;;;;27.08;14.73;;;;;;;2.70;92.07;96754.75;4190803;28;20243;-87
2023/12/02 02:41:10;;;;;;;25.73;14.32;;;;;;;2.72;93.04;96768.38;4192454;28;20205;-86
2023/12/02 02:43:14;;;;;;;25.52;15.25;;;;;;;2.79;92.62;96764.50;4189903;28;20213;-87
2023/12/02 02:45:17;;;;;;;29.83;15.43;;;;;;;2.81;92.07;96762.66;4189955;28;20209;-86
2023/12/02 02:47:20;;;;;;;25.63;15.00;;;;;;;2.82;91.70;96769.47;4188841;28;20205;-87
2023/12/02 02:49:23;;;;;;;27.00;14.80;;;;;;;2.80;91.86;96766.16;4205002;28;20197;-87
2023/12/02 02:51:26;;;;;;;23.33;13.55;;;;;;;2.82;90.50;96772.03;4187533;28;20193;-87
2023/12/02 02:53:29;;;;;;;28.45;15.55;;;;;;;2.55;91.43;96768.50;4173131;28;20256;-86
2023/12/02 02:55:34;;;;;;;28.33;15.77;;;;;;;2.52;91.79;96768.69;4191094;28;20206;-86
2023/12/02 02:57:37;;;;;;;28.48;16.13;;;;;;;2.58;92.13;96778.59;4187542;28;20277;-87
2023/12/02 02:59:40;;;;;;;26.90;14.45;;;;;;;2.64;91.88;96778.25;4189101;28;20631;-87
2023/12/02 03:01:45;;;;;;;23.40;13.90;;;;;;;2.61;91.39;96775.84;4193201;28;20248;-86
2023/12/02 03:03:48;;;;;;;27.55;15.00;;;;;;;2.40;91.07;96774.53;4183309;28;20206;-86
2023/12/02 03:05:53;;;;;;;27.52;15.13;;;;;;;2.28;91.55;96773.59;4187063;28;20198;-87
2023/12/02 03:07:56;;;;;;;25.73;14.35;;;;;;;2.26;91.73;96770.28;4187707;28;20568;-86
2023/12/02 03:10:00;;;;;;;25.95;13.95;;;;;;;2.18;92.11;96772.44;4189377;28;20265;-87
2023/12/02 03:12:05;;;;;;;29.65;15.98;;;;;;;2.22;92.80;96779.91;4173188;28;20726;-87
2023/12/02 03:14:08;;;;;;;27.02;14.27;;;;;;;2.26;92.82;96775.44;4186918;28;20201;-87
2023/12/02 03:16:11;;;;;;;27.58;16.25;;;;;;;2.24;93.59;96774.66;4187853;28;20282;-86
2023/12/02 03:18:14;;;;;;;28.30;15.02;;;;;;;2.23;93.05;96765.31;4188044;28;20214;-87
2023/12/02 03:20:18;;;;;;;26.40;14.88;;;;;;;2.27;92.75;96761.63;4191217;28;20288;-86
2023/12/02 03:22:21;;;;;;;24.95;14.18;;;;;;;2.26;92.36;96767.72;4189040;28;20202;-86
2023/12/02 03:24:24;;;;;;;30.65;14.77;;;;;;;2.22;92.98;96767.03;4171951;28;20198;-87
2023/12/02 03:26:28;;;;;;;25.90;14.73;;;;;;;2.14;93.20;96755.56;4176275;28;20206;-87
2023/12/02 03:28:32;;;;;;;30.83;16.42;;;;;;;2.16;93.31;96761.44;4175055;28;20281;-86
2023/12/02 03:30:35;;;;;;;27.42;15.50;;;;;;;2.07;93.01;96752.50;4187642;28;20208;-87
2023/12/02 03:32:39;;;;;;;26.95;14.05;;;;;;;2.09;93.62;96757.53;4188930;28;20300;-86
2023/12/02 03:34:42;;;;;;;26.10;14.73;;;;;;;2.15;92.98;96768.31;4192328;28;20201;-86
2023/12/02 03:36:46;;;;;;;29.13;14.68;;;;;;;2.21;93.93;96777.41;4172564;28;20797;-87
2023/12/02 03:38:49;;;;;;;29.33;16.10;;;;;;;2.28;93.40;96776.16;4187288;28;20202;-86
2023/12/02 03:40:52;;;;;;;29.77;14.63;;;;;;;2.22;93.40;96774.75;4187734;28;20211;-87
2023/12/02 03:42:55;;;;;;;26.15;14.27;;;;;;;2.22;93.27;96776.50;4183819;28;20202;-87
2023/12/02 03:44:59;;;;;;;28.77;15.68;;;;;;;2.27;93.85;96774.50;4190508;28;20803;-86
2023/12/02 03:47:03;;;;;;;30.35;15.50;;;;;;;2.27;93.64;96780.50;4186588;28;20194;-86
2023/12/02 03:49:06;;;;;;;26.85;15.43;;;;;;;2.26;93.60;96790.88;4185503;28;20226;-87
2023/12/02 03:51:10;;;;;;;29.60;17.17;;;;;;;2.24;93.90;96790.94;4187360;28;20206;-86
2023/12/02 03:53:13;;;;;;;24.42;14.48;;;;;;;2.11;93.67;96786.59;4190786;28;20715;-86
2023/12/02 03:55:18;;;;;;;28.80;14.43;;;;;;;2.16;93.73;96784.56;4190624;28;20299;-87
2023/12/02 03:57:21;;;;;;;28.83;15.38;;;;;;;2.18;93.86;96786.16;4174122;28;20214;-86
2023/12/02 03:59:24;;;;;;;30.63;16.38;;;;;;;2.23;94.07;96793.59;4188737;28;20625;-86
2023/12/02 04:01:29;;;;;;;29.75;14.27;;;;;;;2.32;94.37;96788.75;4196590;28;20701;-86
2023/12/02 04:03:33;;;;;;;32.17;15.75;;;;;;;2.36;93.95;96792.78;4187095;28;20214;-86
2023/12/02 04:05:36;;;;;;;33.75;16.85;;;;;;;2.37;94.61;96794.47;4186746;28;20633;-87
2023/12/02 04:07:40;;;;;;;27.77;15.45;;;;;;;2.40;94.99;96802.81;4183781;28;20244;-87
2023/12/02 04:09:44;;;;;;;27.20;14.90;;;;;;;2.42;95.15;96806.16;4185758;28;20289;-86
2023/12/02 04:11:48;;;;;;;27.83;15.75;;;;;;;2.43;95.21;96804.41;4192451;28;20206;-86
2023/12/02 04:13:51;;;;;;;26.98;15.13;;;;;;;2.44;94.86;96814.59;4188493;28;20288;-87
2023/12/02 04:15:54;;;;;;;27.33;14.88;;;;;;;2.48;94.73;96815.25;4173726;28;20206;-87
2023/12/02 04:17:59;;;;;;;24.65;14.55;;;;;;;2.44;94.81;96822.31;4203464;28;20668;-86
2023/12/02 04:20:08;;;;;;;21.45;14.07;;;;;;;2.42;94.97;96816.44;4189850;28;20205;-87
2023/12/02 04:22:11;;;;;;;25.95;14.70;;;;;;;2.41;94.85;96817.34;4207011;28;20269;-87
2023/12/02 04:24:14;;;;;;;26.08;14.20;;;;;;;2.38;95.23;96827.81;4190762;28;20680;-87
2023/12/02 04:26:17;;;;;;;26.45;13.25;;;;;;;2.38;95.14;96827.81;4188553;28;20221;-86
2023/12/02 04:28:20;;;;;;;23.20;13.52;;;;;;;2.38;94.95;96832.94;4191108;28;20202;-86
2023/12/02 04:30:23;;;;;;;24.35;12.70;;;;;;;2.39;94.89;96833.75;4176181;28;20297;-86
2023/12/02 04:32:25;;;;;;;24.35;14.18;;;;;;;2.42;94.69;96841.31;4193815;28;20651;-87
2023/12/02 04:34:30;;;;;;;24.45;13.50;;;;;;;2.38;94.41;96850.94;4187111;28;20216;-87
2023/12/02 04:36:33;;;;;;;26.08;14.20;;;;;;;2.35;94.59;96847.72;4189550;28;20244;-87
2023/12/02 04:38:37;;;;;;;23.77;13.35;;;;;;;2.38;94.88;96858.66;4173899;28;20272;-86
2023/12/02 04:40:40;;;;;;;24.08;13.55;;;;;;;2.42;94.20;96869.59;4184705;28;20256;-87
2023/12/02 04:42:44;;;;;;;23.00;12.55;;;;;;;2.46;94.48;96868.53;4187678;28;20263;-86
2023/12/02 04:44:47;;;;;;;21.60;12.18;;;;;;;2.50;94.21;96870.84;4186240;28;20211;-87
2023/12/02 04:46:51;;;;;;;21.35;13.07;;;;;;;2.56;94.56;96867.91;4187851;28;20275;-86
2023/12/02 04:48:54;;;;;;;23.13;13.07;;;;;;;2.58;93.97;96870.41;4189460;28;20288;-86
2023/12/02 04:50:58;;;;;;;21.98;12.65;;;;;;;2.62;93.94;96872.72;4187360;28;20276;-86
2023/12/02 04:53:01;;;;;;;21.90;12.35;;;;;;;2.66;93.61;96886.22;4185662;28;20619;-86
2023/12/02 04:55:05;;;;;;;19.83;11.73;;;;;;;2.68;94.02;96876.69;4193131;28;20275;-87
2023/12/02 04:57:08;;;;;;;20.55;11.82;;;;;;;2.69;93.49;96880.91;4188677;28;20256;-86
2023/12/02 04:59:11;;;;;;;20.35;11.70;;;;;;;2.69;93.56;96883.47;4185248;28;20305;-87
2023/12/02 05:01:15;;;;;;;19.85;11.70;;;;;;;2.66;93.13;96887.06;4185100;28;20699;-87
2023/12/02 05:03:18;;;;;;;18.88;12.00;;;;;;;2.67;93.43;96886.16;4181618;28;20207;-87
2023/12/02 05:05:21;;;;;;;19.30;12.25;;;;;;;2.72;93.44;96891.88;4188647;28;20650;-87
2023/12/02 05:07:26;;;;;;;17.52;11.35;;;;;;;2.75;92.50;96896.81;4185800;28;20607;-86
2023/12/02 05:09:29;;;;;;;18.80;11.20;;;;;;;2.69;92.03;96901.50;4191588;28;20197;-86
2023/12/02 05:11:33;;;;;;;16.00;10.80;;;;;;;2.62;92.90;96901.03;4186167;28;20293;-86
2023/12/02 05:13:37;;;;;;;19.65;11.88;;;;;;;2.64;92.85;96906.91;4187470;28;20198;-87
2023/12/02 05:15:41;;;;;;;22.38;12.45;;;;;;;2.66;92.73;96912.81;4184494;28;20194;-87
2023/12/02 05:17:47;;;;;;;19.30;10.65;;;;;;;2.67;93.16;96908.47;4187413;28;20263;-87
2023/12/02 05:19:50;;;;;;;17.48;11.32;;;;;;;2.68;92.83;96920.44;4190177;28;20189;-86
2023/12/02 05:21:53;;;;;;;19.95;11.38;;;;;;;2.66;93.19;96911.97;4190813;28;20201;-87
2023/12/02 05:23:58;;;;;;;16.95;10.50;;;;;;;2.67;92.61;96909.31;4186652;28;20221;-86
2023/12/02 05:26:01;;;;;;;18.10;10.73;;;;;;;2.65;92.14;96916.28;4185733;28;20527;-87
2023/12/02 05:28:05;;;;;;;17.63;10.18;;;;;;;2.62;92.21;96911.31;4192772;28;20280;-87
2023/12/02 05:30:12;;;;;;;16.95;9.98;;;;;;;2.54;91.83;96908.34;4192051;28;20201;-86
2023/12/02 05:32:16;;;;;;;17.67;11.10;;;;;;;2.50;91.87;96908.59;4177247;28;20241;-86
2023/12/02 05:34:19;;;;;;;16.48;10.05;;;;;;;2.44;92.32;96909.75;4190302;28;20201;-87
2023/12/02 05:36:22;;;;;;;17.77;10.52;;;;;;;2.46;92.65;96913.06;4178481;28;20227;-87
2023/12/02 05:38:25;;;;;;;17.17;10.43;;;;;;;2.47;92.70;96907.03;4186837;28;20225;-86
2023/12/02 05:40:30;;;;;;;18.35;10.50;;;;;;;2.47;93.13;96913.91;4186589;28;20304;-86
2023/12/02 05:42:32;;;;;;;17.17;10.65;;;;;;;2.46;93.45;96910.50;4191553;28;20706;-86
2023/12/02 05:44:35;;;;;;;17.70;11.07;;;;;;;2.48;93.42;96920.69;4190938;28;20201;-86
2023/12/02 05:46:38;;;;;;;19.80;11.82;;;;;;;2.53;93.81;96919.53;4187170;28;20297;-86
2023/12/02 05:48:42;;;;;;;18.40;10.15;;;;;;;2.55;93.54;96928.00;4190818;28;20209;-86
2023/12/02 05:50:45;;;;;;;16.35;9.65;;;;;;;2.58;93.33;96932.16;4189292;28;20202;-86
2023/12/02 05:52:51;;;;;;;15.55;10.48;;;;;;;2.46;93.07;96927.69;4174292;28;20202;-86
2023/12/02 05:54:55;;;;;;;16.42;10.05;;;;;;;2.47;93.41;96942.22;4176189;28;20240;-87
2023/12/02 05:56:59;;;;;;;14.57;9.77;;;;;;;2.49;93.35;96948.91;4191397;28;20209;-86
2023/12/02 05:59:02;;;;;;;15.48;9.80;;;;;;;2.51;93.41;96951.41;4173445;28;20219;-86
2023/12/02 06:01:09;;;;;;;17.00;9.90;;;;;;;2.51;93.47;96951.41;4188515;28;20201;-86
2023/12/02 06:03:12;;;;;;;15.80;9.70;;;;;;;2.52;93.32;96956.47;4175541;28;20210;-86
2023/12/02 06:05:15;;;;;;;14.77;9.35;;;;;;;2.49;92.95;96956.63;4185010;28;20202;-86
2023/12/02 06:07:19;;;;;;;13.95;9.20;;;;;;;2.52;92.81;96968.50;4188934;28;20212;-86
2023/12/02 06:09:22;;;;;;;15.02;10.25;;;;;;;2.51;92.75;96970.25;4191355;28;20583;-86
2023/12/02 06:11:25;;;;;;;16.83;10.43;;;;;;;2.48;92.70;96964.44;4187342;28;20202;-86
2023/12/02 06:13:30;;;;;;;16.75;10.43;;;;;;;2.45;92.65;96973.16;4189285;28;20255;-86
2023/12/02 06:15:33;;;;;;;14.95;9.27;;;;;;;2.46;92.82;96963.69;4191877;28;20220;-86
2023/12/02 06:17:36;;;;;;;15.77;9.27;;;;;;;2.45;92.49;96962.88;4192122;28;20206;-86
2023/12/02 06:19:40;;;;;;;14.32;9.45;;;;;;;2.40;92.76;96969.16;4175165;28;20692;-86
2023/12/02 06:21:43;;;;;;;16.73;10.93;;;;;;;2.40;92.75;96964.84;4192954;28;20208;-86
2023/12/02 06:23:46;;;;;;;16.77;10.35;;;;;;;2.39;92.44;96968.34;4206127;28;20246;-86
2023/12/02 06:25:49;;;;;;;12.75;9.07;;;;;;;2.30;91.32;96980.88;4208543;28;20201;-86
2023/12/02 06:27:52;;;;;;;15.10;9.38;;;;;;;2.20;91.90;96973.75;4190239;28;20304;-86
2023/12/02 06:29:57;;;;;;;18.65;10.60;;;;;;;2.25;92.59;96982.03;4171278;28;20657;-86
2023/12/02 06:32:00;;;;;;;18.35;10.85;;;;;;;2.18;92.26;96986.69;4209437;28;20223;-86
2023/12/02 06:34:04;;;;;;;19.48;11.25;;;;;;;2.12;92.19;96986.16;4188474;28;20676;-86
2023/12/02 06:36:08;;;;;;;16.38;11.10;;;;;;;2.09;91.88;96983.75;4194800;28;20209;-86
2023/12/02 06:38:12;;;;;;;17.70;11.55;;;;;;;2.02;92.31;96983.25;4175140;28;20232;-86
2023/12/02 06:40:14;;;;;;;16.10;10.80;;;;;;;2.04;92.44;96980.59;4187233;28;20220;-86
2023/12/02 06:42:17;;;;;;;17.13;10.10;;;;;;;2.03;92.05;96986.66;4190838;28;20267;-86
2023/12/02 06:44:21;;;;;;;19.90;12.13;;;;;;;1.99;92.09;96988.56;4191050;28;20293;-86
2023/12/02 06:46:26;;;;;;;15.57;9.73;;;;;;;2.01;91.89;96993.63;4178056;28;20259;-86
2023/12/02 06:48:30;;;;;;;16.63;10.65;;;;;;;1.91;91.87;96995.03;4192000;28;20217;-86
2023/12/02 06:50:33;;;;;;;19.60;10.95;;;;;;;1.87;91.67;96998.66;4191742;28;20293;-86
2023/12/02 06:52:36;;;;;;;19.02;11.05;;;;;;;1.80;91.61;96992.16;4192451;28;20325;-86
2023/12/02 06:54:39;;;;;;;17.42;10.05;;;;;;;1.80;92.09;97002.44;4192438;28;20230;-86
2023/12/02 06:56:42;;;;;;;15.70;10.13;;;;;;;1.82;91.80;96999.78;4192413;28;20201;-86
2023/12/02 06:58:45;;;;;;;17.05;10.20;;;;;;;1.84;91.68;97006.53;4172263;28;20233;-86
2023/12/02 07:00:48;;;;;;;17.73;11.00;;;;;;;1.80;91.50;97005.00;4191449;28;20642;-86
2023/12/02 07:02:53;;;;;;;18.48;10.20;;;;;;;1.78;91.51;97009.41;4196200;28;20225;-86
2023/12/02 07:04:56;;;;;;;15.88;9.27;;;;;;;1.76;91.44;97010.38;4188371;28;20288;-86
2023/12/02 07:06:59;;;;;;;16.17;10.23;;;;;;;1.70;91.57;97013.25;4191880;28;20210;-86
2023/12/02 07:09:02;;;;;;;18.45;10.60;;;;;;;1.64;92.03;97011.00;4189049;28;20225;-86
2023/12/02 07:11:08;;;;;;;21.65;10.82;;;;;;;1.66;92.17;97020.31;4190368;28;20197;-86
2023/12/02 07:13:11;;;;;;;18.33;11.27;;;;;;;1.72;92.22;97021.75;4187211;28;20325;-86
2023/12/02 07:15:14;;;;;;;17.35;10.07;;;;;;;1.78;92.59;97029.97;4186714;28;20220;-86
2023/12/02 07:17:16;;;;;;;15.60;10.27;;;;;;;1.76;92.49;97031.78;4188789;28;20701;-86
2023/12/02 07:19:21;;;;;;;17.98;10.90;;;;;;;1.76;92.32;97034.34;4189416;28;20214;-86
2023/12/02 07:21:23;;;;;;;17.58;10.50;;;;;;;1.80;92.25;97035.84;4193961;28;20768;-86
2023/12/02 07:23:28;;;;;;;17.15;9.48;;;;;;;1.84;92.10;97044.25;4188243;28;20201;-86
2023/12/02 07:25:33;;;;;;;19.40;11.50;;;;;;;1.86;92.17;97050.13;4190598;28;20669;-86
2023/12/02 07:27:37;;;;;;;17.58;10.30;;;;;;;1.89;92.56;97051.63;4185835;28;20202;-86
2023/12/02 07:29:39;;;;;;;20.70;11.10;;;;;;;1.84;91.98;97052.78;4194479;28;20193;-86
2023/12/02 07:31:45;;;;;;;13.35;9.40;;;;;;;1.82;92.08;97057.16;4174159;28;20206;-86
2023/12/02 07:33:48;;;;;;;18.35;10.90;;;;;;;1.80;91.75;97061.53;4189213;28;20215;-86
2023/12/02 07:35:53;;;;;;;18.05;10.07;;;;;;;1.79;91.81;97065.03;4186845;28;20716;-86
2023/12/02 07:37:56;;;;;;;15.00;10.00;;;;;;;1.80;92.04;97064.09;4174309;28;20198;-86
2023/12/02 07:39:59;;;;;;;15.80;9.00;;;;;;;1.79;91.18;97072.75;4189378;28;20371;-86
2023/12/02 07:42:03;;;;;;;18.55;10.38;;;;;;;1.83;91.77;97070.84;4172789;28;20768;-86
2023/12/02 07:44:07;;;;;;;16.98;10.00;;;;;;;1.87;91.69;97071.44;4175841;28;21814;-86
2023/12/02 07:46:10;;;;;;;17.77;10.23;;;;;;;1.92;91.85;97078.91;4182615;28;20206;-86
2023/12/02 07:48:13;;;;;;;17.20;10.02;;;;;;;1.97;92.59;97087.19;4182822;28;20214;-87
2023/12/02 07:50:16;;;;;;;14.30;9.10;;;;;;;2.02;92.00;97087.81;4187216;28;20272;-86
2023/12/02 07:52:21;;;;;;;15.38;9.27;;;;;;;2.05;91.52;97095.38;4185279;28;20206;-86
2023/12/02 07:54:24;;;;;;;19.30;10.38;;;;;;;2.03;90.59;97098.03;4206077;28;20440;-86
2023/12/02 07:56:28;;;;;;;16.55;9.82;;;;;;;1.98;89.56;97104.28;4186057;28;20202;-85
2023/12/02 07:58:31;;;;;;;20.45;11.13;;;;;;;1.92;90.15;97096.88;4188961;28;20691;-83
2023/12/02 08:00:35;;;;;;;15.25;9.80;;;;;;;1.94;90.48;97103.63;4188689;28;20256;-86
2023/12/02 08:02:38;;;;;;;16.85;9.98;;;;;;;2.01;90.14;97106.72;4168840;28;20284;-85
2023/12/02 08:04:40;;;;;;;15.02;9.68;;;;;;;2.00;89.95;97108.47;4188630;28;20239;-85
2023/12/02 08:06:43;;;;;;;15.23;9.35;;;;;;;1.98;90.02;97110.25;4177081;28;20228;-85
2023/12/02 08:08:49;;;;;;;16.83;10.00;;;;;;;1.99;89.76;97111.09;4177489;28;20317;-85
2023/12/02 08:10:52;;;;;;;17.13;9.18;;;;;;;2.01;89.81;97112.66;4173201;28;20842;-85
2023/12/02 08:12:55;;;;;;;13.70;9.00;;;;;;;1.96;89.22;97121.53;4189025;28;20667;-85
2023/12/02 08:14:58;;;;;;;13.50;8.80;;;;;;;1.67;88.19;97118.75;4188051;28;20623;-85
2023/12/02 08:17:02;;;;;;;12.45;8.68;;;;;;;1.67;89.91;97117.03;4188454;28;20683;-85
2023/12/02 08:19:05;;;;;;;17.50;9.75;;;;;;;1.67;89.39;97114.44;4188334;28;20320;-85
2023/12/02 08:21:09;;;;;;;14.85;8.80;;;;;;;1.74;89.48;97115.78;4175103;28;20293;-85
2023/12/02 08:23:12;;;;;;;15.68;9.05;;;;;;;1.77;89.77;97131.06;4186809;28;20204;-85
2023/12/02 08:25:17;;;;;;;15.80;9.55;;;;;;;1.73;88.85;97132.13;4204505;28;20231;-86
2023/12/02 08:27:21;;;;;;;14.75;8.02;;;;;;;1.66;88.71;97137.66;4184042;28;20685;-85
2023/12/02 08:29:24;;;;;;;13.40;8.73;;;;;;;1.64;88.46;97137.72;4187733;28;20229;-86
2023/12/02 08:31:27;;;;;;;16.55;9.85;;;;;;;1.61;88.78;97143.00;4186972;28;20300;-86
2023/12/02 08:33:31;;;;;;;14.27;9.20;;;;;;;1.57;88.78;97141.50;4186670;28;20664;-84
2023/12/02 08:35:34;;;;;;;17.70;10.23;;;;;;;1.48;89.14;97141.94;4205050;28;21166;-84
2023/12/02 08:37:37;;;;;;;17.13;9.88;;;;;;;1.46;89.56;97151.44;4189109;28;20209;-84
2023/12/02 08:39:40;;;;;;;17.45;10.60;;;;;;;1.46;90.29;97164.28;4190991;28;20249;-84
2023/12/02 08:41:45;;;;;;;16.95;9.48;;;;;;;1.43;89.82;97155.91;4208056;28;20196;-85
2023/12/02 08:43:48;;;;;;;14.70;9.60;;;;;;;1.34;89.77;97161.47;4185670;28;20695;-84
2023/12/02 08:45:51;;;;;;;14.35;8.75;;;;;;;1.31;89.92;97166.75;4187518;28;20213;-85
2023/12/02 08:47:54;;;;;;;14.95;8.50;;;;;;;1.36;89.76;97162.22;4188328;28;20201;-85
2023/12/02 08:49:57;;;;;;;13.45;7.50;;;;;;;1.35;90.05;97177.72;4170369;28;20218;-85
2023/12/02 08:51:59;;;;;;;15.00;8.98;;;;;;;1.37;90.10;97179.31;4176988;28;20252;-85
2023/12/02 08:54:03;;;;;;;17.20;9.43;;;;;;;1.38;89.96;97182.69;4182400;28;20225;-84
2023/12/02 08:56:08;;;;;;;14.70;9.23;;;;;;;1.39;89.89;97189.50;4188898;28;20612;-84
2023/12/02 08:58:13;;;;;;;16.88;9.20;;;;;;;1.39;89.45;97184.38;4190908;28;20524;-84
2023/12/02 09:00:17;;;;;;;14.88;8.57;;;;;;;1.33;89.80;97198.31;4173574;28;20233;-84
2023/12/02 09:02:21;;;;;;;13.85;8.05;;;;;;;1.31;89.70;97196.72;4190644;28;20201;-85
2023/12/02 09:04:25;;;;;;;14.40;7.47;;;;;;;1.27;89.68;97205.47;4171328;28;20194;-85
2023/12/02 09:06:29;;;;;;;13.55;8.52;;;;;;;1.29;89.87;97203.66;4188252;28;20205;-84
2023/12/02 09:08:32;;;;;;;18.20;8.90;;;;;;;1.36;89.96;97202.50;4189887;28;20209;-85
2023/12/02 09:10:35;;;;;;;17.60;9.20;;;;;;;1.39;89.82;97206.56;4189726;28;20702;-86
2023/12/02 09:12:37;;;;;;;15.32;9.30;;;;;;;1.44;90.57;97214.06;4190049;28;20562;-85
2023/12/02 09:14:42;;;;;;;14.55;8.23;;;;;;;1.52;89.98;97223.06;4185458;28;20287;-85
2023/12/02 09:16:47;;;;;;;15.30;9.40;;;;;;;1.60;89.92;97220.97;4189863;28;20198;-85
2023/12/02 09:18:51;;;;;;;11.63;7.50;;;;;;;1.64;89.32;97232.78;4187130;28;20309;-85
2023/12/02 09:20:55;;;;;;;15.52;8.98;;;;;;;1.65;88.87;97233.59;4171487;28;20230;-84
2023/12/02 09:23:00;;;;;;;14.15;8.27;;;;;;;1.68;88.87;97241.97;4174249;28;20755;-85
2023/12/02 09:25:05;;;;;;;16.40;9.63;;;;;;;1.70;88.62;97240.19;4206162;28;20207;-85
2023/12/02 09:27:09;;;;;;;17.85;9.77;;;;;;;1.71;88.39;97244.41;4185731;28;20205;-85
2023/12/02 09:29:11;;;;;;;14.40;8.23;;;;;;;1.74;88.32;97246.00;4189316;28;20241;-85
2023/12/02 09:31:15;;;;;;;14.75;8.48;;;;;;;1.72;87.94;97252.97;4174056;28;20268;-85
2023/12/02 09:33:17;;;;;;;15.95;8.30;;;;;;;1.71;87.92;97249.53;4189858;28;20200;-84
2023/12/02 09:35:21;;;;;;;14.00;8.05;;;;;;;1.75;88.29;97256.22;4188761;28;20733;-87